West Yellowstone, Montana
Current Conditions -  °F | °C
As of 6:56 AM on Thursday 27 Nov 2014 (Local Time) from KDIJ Reporting Station
Few Clouds Few Clouds  
Wind Chill: 32°   Ceiling: Unl
Heat Index: 40°   Visibility: 10mi
Dew Point: 27°   Wind: 14mph
Humidity: 60%   Direction: 200°SSW
Pressure: 30.21"   Gusts: NA
Location:  44.66°N, 111.1°W
Report Text: KDIJ 271356Z AUTO 20012KT 10SM FEW110 04/M03 A3021 RMK AO2 T00441027 SLP204
Loading
Personal Weather Stations






























Interactive Weather Map New forecast layout! Learn more

10-Day Weather Forecast

Advertisements
Track Severe Weather on mobile